Map

Track Data

SID SEASON NUMBER BASIN SUBBASIN NAME ISO_TIME NATURE LAT LON WMO_WIND WMO_PRES WMO_AGENCY TRACK_TYPE DIST2LAND LANDFALL IFLAG USA_AGENCY USA_ATCF_ID USA_LAT USA_LON USA_RECORD USA_STATUS USA_WIND USA_PRES USA_SSHS USA_R34_NE USA_R34_SE USA_R34_SW USA_R34_NW USA_R50_NE USA_R50_SE USA_R50_SW USA_R50_NW USA_R64_NE USA_R64_SE USA_R64_SW USA_R64_NW USA_POCI USA_ROCI USA_RMW USA_EYE TOKYO_LAT TOKYO_LON TOKYO_GRADE TOKYO_WIND TOKYO_PRES TOKYO_R50_DIR TOKYO_R50_LONG TOKYO_R50_SHORT TOKYO_R30_DIR TOKYO_R30_LONG TOKYO_R30_SHORT TOKYO_LAND CMA_LAT CMA_LON CMA_CAT CMA_WIND CMA_PRES HKO_LAT HKO_LON HKO_CAT HKO_WIND HKO_PRES NEWDELHI_LAT NEWDELHI_LON NEWDELHI_GRADE NEWDELHI_WIND NEWDELHI_PRES NEWDELHI_CI NEWDELHI_DP NEWDELHI_POCI REUNION_LAT REUNION_LON REUNION_TYPE REUNION_WIND REUNION_PRES REUNION_TNUM REUNION_CI REUNION_RMW REUNION_R34_NE REUNION_R34_SE REUNION_R34_SW REUNION_R34_NW REUNION_R50_NE REUNION_R50_SE REUNION_R50_SW REUNION_R50_NW REUNION_R64_NE REUNION_R64_SE REUNION_R64_SW REUNION_R64_NW BOM_LAT BOM_LON BOM_TYPE BOM_WIND BOM_PRES BOM_TNUM BOM_CI BOM_RMW BOM_R34_NE BOM_R34_SE BOM_R34_SW BOM_R34_NW BOM_R50_NE BOM_R50_SE BOM_R50_SW BOM_R50_NW BOM_R64_NE BOM_R64_SE BOM_R64_SW BOM_R64_NW BOM_ROCI BOM_POCI BOM_EYE BOM_POS_METHOD BOM_PRES_METHOD NADI_LAT NADI_LON NADI_CAT NADI_WIND NADI_PRES WELLINGTON_LAT WELLINGTON_LON WELLINGTON_WIND WELLINGTON_PRES DS824_LAT DS824_LON DS824_STAGE DS824_WIND DS824_PRES TD9636_LAT TD9636_LON TD9636_STAGE TD9636_WIND TD9636_PRES TD9635_LAT TD9635_LON TD9635_WIND TD9635_PRES TD9635_ROCI NEUMANN_LAT NEUMANN_LON NEUMANN_CLASS NEUMANN_WIND NEUMANN_PRES MLC_LAT MLC_LON MLC_CLASS MLC_WIND MLC_PRES USA_GUST BOM_GUST BOM_GUST_PER REUNION_GUST REUNION_GUST_PER USA_SEAHGT USA_SEARAD_NE USA_SEARAD_SE USA_SEARAD_SW USA_SEARAD_NW STORM_SPEED STORM_DIR
1915265N18147 1915 37 WP MM NOT_NAMED 1915-09-22 09:00:00 NR 17.8000 146.800 main 2028 2000 __________O___ -1 17.8000 146.800 2 7 317
1915265N18147 1915 37 WP MM NOT_NAMED 1915-09-22 12:00:00 NR 18.0393 146.569 main 2000 1961 __________P___ -1 18.0393 146.569 2 7 318
1915265N18147 1915 37 WP MM NOT_NAMED 1915-09-22 15:00:00 NR 18.2828 146.341 main 1958 1930 __________P___ -1 18.2828 146.341 2 7 319
1915265N18147 1915 37 WP MM NOT_NAMED 1915-09-22 18:00:00 NR 18.5349 146.117 main 1930 1892 __________P___ -1 18.5349 146.117 2 7 321
1915265N18147 1915 37 WP MM NOT_NAMED 1915-09-22 21:00:00 NR 18.8000 145.900 main 1892 1854 __________O___ -1 18.8000 145.900 2 7 324
1915265N18147 1915 37 WP MM NOT_NAMED 1915-09-23 00:00:00 NR 19.0813 145.691 main 1854 1816 __________P___ -1 19.0813 145.691 2 7 325
1915265N18147 1915 37 WP MM NOT_NAMED 1915-09-23 03:00:00 NR 19.3771 145.479 main 1816 1778 __________P___ -1 19.3771 145.479 2 7 326
1915265N18147 1915 37 WP MM NOT_NAMED 1915-09-23 06:00:00 NR 19.6844 145.253 main 1778 1737 __________P___ -1 19.6844 145.253 2 8 324
1915265N18147 1915 37 WP MM NOT_NAMED 1915-09-23 09:00:00 NR 20.0000 145.000 main 1737 1696 __________O___ -1 20.0000 145.000 2 8 320
1915265N18147 1915 37 WP MM NOT_NAMED 1915-09-23 12:00:00 NR 20.3139 144.696 main 1696 1656 __________P___ -1 20.3139 144.696 2 9 317
1915265N18147 1915 37 WP MM NOT_NAMED 1915-09-23 15:00:00 NR 20.6352 144.365 main 1656 1612 __________P___ -1 20.6352 144.365 2 9 316
1915265N18147 1915 37 WP MM NOT_NAMED 1915-09-23 18:00:00 NR 20.9639 144.027 main 1601 1558 __________P___ -1 20.9639 144.027 2 9 317
1915265N18147 1915 37 WP MM NOT_NAMED 1915-09-23 21:00:00 NR 21.3000 143.700 main 1558 1514 __________O___ -1 21.3000 143.700 2 9 318
1915265N18147 1915 37 WP MM NOT_NAMED 1915-09-24 00:00:00 NR 21.6387 143.386 main 1514 1460 __________P___ -1 21.6387 143.386 2 9 320
1915265N18147 1915 37 WP MM NOT_NAMED 1915-09-24 03:00:00 NR 21.9850 143.090 main 1460 1416 __________P___ -1 21.9850 143.090 2 9 323
1915265N18147 1915 37 WP MM NOT_NAMED 1915-09-24 06:00:00 NR 22.3388 142.824 main 1416 1367 __________P___ -1 22.3388 142.824 2 9 328
1915265N18147 1915 37 WP MM NOT_NAMED 1915-09-24 09:00:00 NR 22.7000 142.600 main 1367 1327 __________O___ -1 22.7000 142.600 2 8 328
1915265N18147 1915 37 WP MM NOT_NAMED 1915-09-24 12:00:00 NR 22.9824 142.384 main 1327 1288 __________P___ -1 22.9824 142.384 2 7 329
1915265N18147 1915 37 WP MM NOT_NAMED 1915-09-24 15:00:00 NR 23.2849 142.216 main 1288 1254 __________P___ -1 23.2849 142.216 2 7 340
1915265N18147 1915 37 WP MM NOT_NAMED 1915-09-24 18:00:00 NR 23.6700 142.116 main 1244 1195 __________P___ -1 23.6700 142.116 2 9 353
1915265N18147 1915 37 WP MM NOT_NAMED 1915-09-24 21:00:00 NR 24.2000 142.100 main 1195 1117 __________O___ -1 24.2000 142.100 2 13 1
1915265N18147 1915 37 WP MM NOT_NAMED 1915-09-25 00:00:00 NR 25.0014 142.144 main 1117 1027 __________P___ -1 25.0014 142.144 2 18 5
1915265N18147 1915 37 WP MM NOT_NAMED 1915-09-25 03:00:00 NR 25.9394 142.277 main 1027 926 __________P___ -1 25.9394 142.277 2 19 9
1915265N18147 1915 37 WP MM NOT_NAMED 1915-09-25 06:00:00 NR 26.9077 142.497 main 926 838 __________P___ -1 26.9077 142.497 2 19 14
1915265N18147 1915 37 WP MM NOT_NAMED 1915-09-25 09:00:00 NR 27.8000 142.800 main 838 785 __________O___ -1 27.8000 142.800 2 16 21
1915265N18147 1915 37 WP MM NOT_NAMED 1915-09-25 12:00:00 NR 28.4401 143.161 main 789 744 __________P___ -1 28.4401 143.161 2 14 30
1915265N18147 1915 37 WP MM NOT_NAMED 1915-09-25 15:00:00 NR 28.9951 143.598 main 744 714 __________P___ -1 28.9951 143.598 2 14 37
1915265N18147 1915 37 WP MM NOT_NAMED 1915-09-25 18:00:00 NR 29.5274 144.087 main 719 690 __________P___ -1 29.5274 144.087 2 14 38
1915265N18147 1915 37 WP MM NOT_NAMED 1915-09-25 21:00:00 NR 30.1000 144.600 main 690 657 __________O___ -1 30.1000 144.600 2 16 34
1915265N18147 1915 37 WP MM NOT_NAMED 1915-09-26 00:00:00 NR 30.8192 145.084 main 657 627 __________P___ -1 30.8192 145.084 2 17 30
1915265N18147 1915 37 WP MM NOT_NAMED 1915-09-26 03:00:00 NR 31.5838 145.591 main 626 610 __________P___ -1 31.5838 145.591 2 18 30
1915265N18147 1915 37 WP MM NOT_NAMED 1915-09-26 06:00:00 NR 32.3565 146.128 main 603 597 __________P___ -1 32.3565 146.128 2 18 32
1915265N18147 1915 37 WP MM NOT_NAMED 1915-09-26 09:00:00 NR 33.1000 146.700 main 604 602 __________O___ -1 33.1000 146.700 2 17 35
1915265N18147 1915 37 WP MM NOT_NAMED 1915-09-26 12:00:00 NR 33.7858 147.309 main 620 620 __________P___ -1 33.7858 147.309 2 17 38
1915265N18147 1915 37 WP MM NOT_NAMED 1915-09-26 15:00:00 NR 34.4206 147.951 main 660 658 __________P___ -1 34.4206 147.951 2 16 41
1915265N18147 1915 37 WP MM NOT_NAMED 1915-09-26 18:00:00 NR 35.0202 148.617 main 700 700 __________P___ -1 35.0202 148.617 2 16 43
1915265N18147 1915 37 WP MM NOT_NAMED 1915-09-26 21:00:00 NR 35.6000 149.300 main 753 __________O___ -1 35.6000 149.300 2 16 44

Digital Typhoon Data and Search

About IBTrACS Database

This database is a web-friendly format of International Best Track Archive for Climate Stewardship (IBTrACS), a global best track data archive curated by NOAA dating back to 1842.

Updated: 2021-11-26